createdAt,value
2022-10-17T00:05:06.391Z,100.00
2022-10-17T00:15:11.680Z,100.00
2022-10-17T00:25:15.481Z,100.00
2022-10-17T00:35:18.657Z,100.00
2022-10-17T00:45:28.586Z,100.00
2022-10-17T00:55:39.426Z,100.00
2022-10-17T01:05:58.802Z,100.00
2022-10-17T01:16:11.637Z,100.00
2022-10-17T01:26:20.669Z,100.00
2022-10-17T01:36:36.155Z,100.00
2022-10-17T01:46:54.662Z,100.00
2022-10-17T01:57:04.010Z,100.00
2022-10-17T02:07:12.688Z,100.00
2022-10-17T02:17:25.275Z,100.00
2022-10-17T02:27:46.927Z,100.00
2022-10-17T02:37:51.964Z,100.00
2022-10-17T02:48:12.736Z,100.00
2022-10-17T02:58:30.562Z,100.00
2022-10-17T03:08:33.677Z,100.00
2022-10-17T03:18:36.853Z,100.00
2022-10-17T03:28:40.453Z,100.00
2022-10-17T03:38:44.353Z,100.00
2022-10-17T03:48:47.549Z,100.00
2022-10-17T03:58:51.292Z,100.00
2022-10-17T04:08:54.434Z,100.00
2022-10-17T04:19:17.747Z,100.00
2022-10-17T04:29:22.616Z,100.00
2022-10-17T04:39:27.245Z,100.00
2022-10-17T04:49:31.411Z,100.00
2022-10-17T04:59:41.918Z,100.00
2022-10-17T05:10:35.747Z,100.00
2022-10-17T05:20:40.246Z,100.00
2022-10-17T05:30:43.334Z,100.00
2022-10-17T05:40:46.822Z,100.00
2022-10-17T05:50:50.290Z,100.00
2022-10-17T06:01:01.868Z,100.00
2022-10-17T06:11:07.684Z,100.00
2022-10-17T06:21:16.198Z,100.00
2022-10-17T06:31:22.364Z,100.00
2022-10-17T06:41:25.624Z,100.00
2022-10-17T06:51:31.580Z,100.00
2022-10-17T07:01:35.288Z,100.00
2022-10-17T07:11:40.420Z,100.00
2022-10-17T07:21:43.781Z,100.00
2022-10-17T07:31:49.038Z,100.00
2022-10-17T07:41:52.319Z,99.97
2022-10-17T07:51:55.544Z,98.79
2022-10-17T08:01:59.595Z,97.01
2022-10-17T08:12:02.570Z,95.57
2022-10-17T08:22:05.976Z,94.04
2022-10-17T08:32:10.345Z,92.26
2022-10-17T08:42:39.644Z,91.39
2022-10-17T08:52:52.935Z,90.04
2022-10-17T09:03:30.089Z,88.90
2022-10-17T09:13:33.116Z,86.60
2022-10-17T09:23:47.460Z,85.05
2022-10-17T09:33:57.024Z,83.95
2022-10-17T09:44:19.523Z,82.86
2022-10-17T09:54:34.148Z,81.86
2022-10-17T10:04:53.029Z,80.54
2022-10-17T10:15:01.168Z,79.32
2022-10-17T10:25:18.053Z,78.46
2022-10-17T10:35:37.343Z,76.81
2022-10-17T10:45:48.096Z,75.75
2022-10-17T10:56:01.023Z,74.64
2022-10-17T11:06:14.504Z,74.23
2022-10-17T11:16:34.226Z,72.90
2022-10-17T11:26:50.728Z,72.38
2022-10-17T11:37:02.618Z,71.93
2022-10-17T11:47:16.480Z,71.34
2022-10-17T11:57:47.823Z,71.06
2022-10-17T12:08:22.159Z,70.77
2022-10-17T12:18:29.574Z,70.55
2022-10-17T12:28:38.332Z,69.98
2022-10-17T12:38:44.873Z,69.26
2022-10-17T12:49:01.345Z,68.71
2022-10-17T12:59:28.316Z,68.89
2022-10-17T13:09:36.241Z,68.42
2022-10-17T13:19:45.043Z,68.60
2022-10-17T13:29:48.212Z,68.41
2022-10-17T13:40:07.013Z,68.89
2022-10-17T13:50:44.045Z,69.42
2022-10-17T14:00:52.697Z,69.81
2022-10-17T14:10:55.993Z,70.16
2022-10-17T14:31:30.121Z,70.65
2022-10-17T14:41:44.154Z,71.11
2022-10-17T14:52:13.416Z,71.66
2022-10-17T15:02:18.255Z,72.06
2022-10-17T15:12:25.186Z,72.57
2022-10-17T15:22:29.113Z,73.33
2022-10-17T15:32:32.523Z,74.54
2022-10-17T15:42:47.957Z,75.89
2022-10-17T15:52:51.259Z,77.38
2022-10-17T16:02:54.190Z,78.89
2022-10-17T16:13:02.957Z,80.16
2022-10-17T16:23:07.889Z,81.28
2022-10-17T16:33:12.138Z,82.15
2022-10-17T16:43:15.799Z,83.50
2022-10-17T16:53:18.815Z,84.78
2022-10-17T17:03:21.854Z,85.91
2022-10-17T17:13:25.967Z,86.48
2022-10-17T17:23:30.109Z,87.09
2022-10-17T17:33:33.888Z,87.33
2022-10-17T17:43:37.163Z,88.38
2022-10-17T17:53:40.665Z,88.65
2022-10-17T18:03:44.205Z,90.38
2022-10-17T18:13:47.322Z,91.73
2022-10-17T18:23:51.942Z,92.19
2022-10-17T18:33:57.074Z,92.76
2022-10-17T18:44:00.501Z,93.44
2022-10-17T18:54:04.078Z,93.72
2022-10-17T19:04:07.184Z,93.85
2022-10-17T19:14:15.151Z,93.96
2022-10-17T19:24:25.576Z,94.43
2022-10-17T19:34:29.107Z,94.44
2022-10-17T19:44:32.406Z,94.25
2022-10-17T19:54:35.543Z,94.42
2022-10-17T20:04:49.505Z,94.67
2022-10-17T20:15:02.358Z,94.93
2022-10-17T20:25:05.748Z,95.57
2022-10-17T20:35:09.068Z,96.76
2022-10-17T20:45:12.094Z,97.43
2022-10-17T20:55:15.218Z,98.15
2022-10-17T21:05:18.495Z,98.14
2022-10-17T21:15:21.713Z,97.41
2022-10-17T21:25:24.737Z,97.32
2022-10-17T21:35:27.708Z,97.75
2022-10-17T21:45:30.941Z,98.40
2022-10-17T21:55:36.529Z,98.79
2022-10-17T22:05:39.359Z,99.21
2022-10-17T22:15:42.351Z,99.43
2022-10-17T22:25:56.170Z,98.93
2022-10-17T22:35:59.321Z,99.07
2022-10-17T22:46:05.776Z,99.46
2022-10-17T22:56:16.734Z,99.98
2022-10-17T23:06:20.301Z,100.00
2022-10-17T23:16:23.262Z,99.96
2022-10-17T23:26:26.357Z,99.95
2022-10-17T23:36:29.469Z,100.00
2022-10-17T23:46:32.702Z,99.73
2022-10-17T23:56:35.693Z,99.02
